Time;durP1;ratioP1;P1;durP2;ratioP2;P2;SDS_P1;SDS_P2;PMS_P1;PMS_P2;Temp;Humidity;BMP_temperature;BMP_pressure;BME280_temperature;BME280_humidity;BME280_pressure;Samples;Min_cycle;Max_cycle;Signal;HPM_P1;HPM_P2
2020/12/16 00:02:19;;;;;;;9.75;1.65;;;10.30;97.40;;;;;;5086955;28;20032;-81
2020/12/16 00:04:47;;;;;;;9.95;1.77;;;10.30;97.60;;;;;;5088148;28;20035;-81
2020/12/16 00:07:13;;;;;;;11.65;1.88;;;10.30;97.70;;;;;;5088272;28;20028;-81
2020/12/16 00:09:38;;;;;;;13.93;2.88;;;10.30;97.70;;;;;;5087097;28;20085;-81
2020/12/16 00:12:04;;;;;;;15.57;2.42;;;10.30;97.90;;;;;;5070014;28;20081;-80
2020/12/16 00:14:30;;;;;;;8.00;1.38;;;10.20;98.00;;;;;;5086746;28;20447;-82
2020/12/16 00:16:56;;;;;;;10.60;1.92;;;10.20;98.10;;;;;;5086666;28;20540;-80
2020/12/16 00:19:21;;;;;;;11.00;1.80;;;10.20;98.10;;;;;;5088070;28;20020;-81
2020/12/16 00:21:47;;;;;;;7.30;1.50;;;10.10;98.20;;;;;;5086908;28;20096;-81
2020/12/16 00:24:13;;;;;;;6.95;1.42;;;10.10;98.20;;;;;;5086759;28;20028;-81
2020/12/16 00:26:39;;;;;;;6.75;1.25;;;10.10;98.20;;;;;;5070118;28;20040;-81
2020/12/16 00:29:04;;;;;;;6.45;1.15;;;10.10;98.20;;;;;;5086619;28;20390;-82
2020/12/16 00:31:30;;;;;;;10.77;1.65;;;10.00;98.20;;;;;;5086848;28;20032;-81
2020/12/16 00:33:56;;;;;;;12.27;2.40;;;10.00;98.40;;;;;;5086591;28;20020;-81
2020/12/16 00:36:22;;;;;;;4.95;0.88;;;9.90;98.60;;;;;;5086898;28;20401;-82
2020/12/16 00:38:48;;;;;;;7.35;1.17;;;9.80;98.90;;;;;;5087200;28;20028;-83
2020/12/16 00:41:13;;;;;;;9.88;1.77;;;9.70;99.20;;;;;;5086897;28;20097;-81
2020/12/16 00:43:39;;;;;;;7.18;1.08;;;9.70;99.40;;;;;;5086518;28;20035;-81
2020/12/16 00:46:05;;;;;;;5.03;0.73;;;9.70;99.70;;;;;;5086910;28;20028;-80
2020/12/16 00:48:30;;;;;;;5.57;0.77;;;9.60;99.90;;;;;;5086591;28;20036;-81
2020/12/16 00:50:56;;;;;;;5.60;1.15;;;9.60;99.90;;;;;;5086727;28;20069;-81
2020/12/16 00:53:22;;;;;;;6.57;1.20;;;9.60;99.90;;;;;;5087757;28;20058;-82
2020/12/16 00:55:47;;;;;;;12.57;0.95;;;9.50;99.90;;;;;;5089128;28;20028;-82
2020/12/16 00:58:13;;;;;;;9.02;1.33;;;9.50;99.90;;;;;;5073774;28;20051;-81
2020/12/16 01:00:39;;;;;;;7.72;0.70;;;9.40;99.90;;;;;;5090502;28;20032;-81
2020/12/16 01:03:05;;;;;;;6.03;1.08;;;9.40;99.90;;;;;;5090760;28;20042;-81
2020/12/16 01:05:30;;;;;;;8.93;0.68;;;9.40;99.90;;;;;;5090341;28;20104;-81
2020/12/16 01:07:56;;;;;;;2.50;0.30;;;9.30;99.90;;;;;;5090328;28;20032;-83
2020/12/16 01:10:22;;;;;;;1.95;0.57;;;9.30;99.90;;;;;;5090742;28;20028;-82
2020/12/16 01:12:48;;;;;;;2.50;0.40;;;9.30;99.90;;;;;;5090339;28;20116;-81
2020/12/16 01:15:19;;;;;;;0.95;0.28;;;9.20;99.90;;;;;;5090569;28;20107;-83
2020/12/16 01:17:46;;;;;;;6.30;0.47;;;9.20;99.90;;;;;;5090117;28;20044;-82
2020/12/16 01:20:13;;;;;;;3.95;0.30;;;9.20;99.90;;;;;;5073424;28;20036;-82
2020/12/16 01:22:39;;;;;;;0.85;0.40;;;9.30;99.90;;;;;;5091515;28;20480;-83
2020/12/16 01:25:05;;;;;;;4.82;0.80;;;9.20;99.90;;;;;;5091436;28;20114;-82
2020/12/16 01:27:31;;;;;;;2.92;0.45;;;9.30;99.90;;;;;;5091607;28;20394;-82
2020/12/16 01:29:57;;;;;;;4.03;0.70;;;9.30;99.90;;;;;;5091439;28;20034;-81
2020/12/16 01:32:23;;;;;;;3.20;0.45;;;9.30;99.90;;;;;;5073458;28;20066;-83
2020/12/16 01:34:48;;;;;;;4.40;0.80;;;9.40;99.90;;;;;;5090036;28;20039;-80
2020/12/16 01:37:14;;;;;;;5.35;0.52;;;9.40;99.90;;;;;;5089911;28;20020;-80
2020/12/16 01:39:39;;;;;;;4.85;0.93;;;9.40;99.90;;;;;;5089988;28;20024;-81
2020/12/16 01:42:05;;;;;;;3.05;0.40;;;9.40;99.90;;;;;;5073080;28;20071;-82
2020/12/16 01:44:31;;;;;;;2.45;0.65;;;9.50;99.90;;;;;;5090990;28;20480;-82
2020/12/16 01:47:00;;;;;;;1.08;0.50;;;9.50;99.90;;;;;;5089775;28;20119;-82
2020/12/16 01:49:26;;;;;;;1.95;0.28;;;9.50;99.90;;;;;;5089920;28;20035;-79
2020/12/16 01:51:57;;;;;;;6.20;0.80;;;9.60;99.90;;;;;;5089669;28;20020;-81
2020/12/16 01:54:24;;;;;;;2.78;0.50;;;9.60;99.90;;;;;;5090878;28;20107;-82
2020/12/16 01:56:54;;;;;;;5.82;0.60;;;9.60;99.90;;;;;;5089751;28;20031;-80
2020/12/16 01:59:20;;;;;;;2.65;0.65;;;9.70;99.90;;;;;;5089430;28;20038;-81
2020/12/16 02:01:52;;;;;;;1.45;0.30;;;9.70;99.90;;;;;;5089745;28;20202;-82
2020/12/16 02:04:32;;;;;;;1.05;0.25;;;9.80;99.90;;;;;;5089411;28;20020;-80
2020/12/16 02:06:59;;;;;;;4.22;0.43;;;9.80;99.90;;;;;;5089594;28;20421;-81
2020/12/16 02:09:25;;;;;;;1.77;0.40;;;9.90;99.90;;;;;;5089240;28;20470;-82
2020/12/16 02:11:51;;;;;;;2.45;0.40;;;9.90;99.90;;;;;;5072495;28;20043;-81
2020/12/16 02:14:16;;;;;;;2.03;0.22;;;9.90;99.90;;;;;;5089412;28;20474;-80
2020/12/16 02:16:43;;;;;;;1.35;0.50;;;9.90;99.90;;;;;;5089417;28;20363;-82
2020/12/16 02:19:10;;;;;;;2.67;0.32;;;10.00;99.90;;;;;;5088936;28;20054;-81
2020/12/16 02:21:36;;;;;;;1.25;0.30;;;10.10;99.90;;;;;;5072224;28;20069;-82
2020/12/16 02:24:10;;;;;;;1.63;0.40;;;10.10;99.90;;;;;;5090362;28;20031;-81
2020/12/16 02:26:38;;;;;;;0.65;0.20;;;10.20;99.90;;;;;;5089134;28;20082;-81
2020/12/16 02:29:05;;;;;;;0.00;0.00;;;10.20;99.90;;;;;;5090246;28;20501;-82
2020/12/16 02:31:36;;;;;;;1.55;0.38;;;10.20;99.90;;;;;;5089186;28;20035;-81
2020/12/16 02:34:04;;;;;;;1.20;0.20;;;10.30;99.90;;;;;;5072300;28;20119;-82
2020/12/16 02:36:29;;;;;;;0.95;0.20;;;10.30;99.90;;;;;;5089015;28;20025;-83
2020/12/16 02:38:55;;;;;;;0.15;0.00;;;10.30;99.90;;;;;;5089165;28;20032;-83
2020/12/16 02:41:22;;;;;;;0.00;0.00;;;10.30;99.90;;;;;;5088814;28;20028;-83
2020/12/16 02:43:49;;;;;;;0.35;0.20;;;10.40;99.90;;;;;;5071951;28;20024;-82
2020/12/16 02:46:15;;;;;;;0.80;0.20;;;10.40;99.90;;;;;;5088868;28;20053;-80
2020/12/16 02:48:40;;;;;;;2.28;0.40;;;10.40;99.90;;;;;;5088542;28;20035;-82
2020/12/16 02:51:06;;;;;;;0.15;0.05;;;10.40;99.90;;;;;;5088668;28;20031;-79
2020/12/16 02:53:32;;;;;;;0.10;0.08;;;10.50;99.90;;;;;;5088723;28;20032;-81
2020/12/16 02:55:57;;;;;;;0.22;0.08;;;10.50;99.90;;;;;;5088397;28;20202;-81
2020/12/16 02:58:23;;;;;;;2.38;0.20;;;10.50;99.90;;;;;;5071724;28;20036;-82
2020/12/16 03:00:50;;;;;;;3.00;0.20;;;10.50;99.90;;;;;;5088324;28;20036;-81
2020/12/16 03:03:16;;;;;;;1.17;0.10;;;10.50;99.90;;;;;;5089539;28;20126;-82
2020/12/16 03:05:42;;;;;;;2.85;0.60;;;10.60;99.90;;;;;;5088364;28;20514;-81
2020/12/16 03:08:10;;;;;;;1.33;0.20;;;10.50;99.90;;;;;;5088246;28;20028;-82
2020/12/16 03:10:36;;;;;;;2.45;0.38;;;10.50;99.90;;;;;;5088651;28;20024;-81
2020/12/16 03:13:02;;;;;;;0.03;0.03;;;10.50;99.90;;;;;;5090025;28;20405;-82
2020/12/16 03:15:28;;;;;;;0.30;0.00;;;10.50;99.90;;;;;;5088023;28;20031;-81
2020/12/16 03:17:54;;;;;;;1.55;0.22;;;10.60;99.90;;;;;;5087277;28;20044;-81
2020/12/16 03:20:19;;;;;;;0.00;0.00;;;10.60;99.90;;;;;;5089257;28;20032;-81
2020/12/16 03:22:45;;;;;;;0.52;0.13;;;10.60;99.90;;;;;;5087830;28;20103;-82
2020/12/16 03:25:10;;;;;;;0.20;0.10;;;10.60;99.90;;;;;;5087753;28;20044;-82
2020/12/16 03:27:38;;;;;;;0.10;0.00;;;10.60;99.90;;;;;;5070718;28;20127;-82
2020/12/16 03:30:04;;;;;;;0.52;0.22;;;10.60;99.90;;;;;;5088059;28;20054;-82
2020/12/16 03:32:30;;;;;;;1.85;0.25;;;10.60;99.90;;;;;;5070958;28;20554;-81
2020/12/16 03:34:56;;;;;;;0.00;0.00;;;10.60;99.90;;;;;;5087828;28;20117;-81
2020/12/16 03:37:21;;;;;;;0.10;0.00;;;10.70;99.90;;;;;;5087941;28;20028;-80
2020/12/16 03:39:47;;;;;;;0.00;0.00;;;10.70;99.90;;;;;;5087887;28;20024;-80
2020/12/16 03:42:13;;;;;;;0.20;0.10;;;10.70;99.90;;;;;;5089210;28;20553;-82
2020/12/16 03:44:38;;;;;;;0.38;0.20;;;10.70;99.90;;;;;;5087606;28;20032;-80
2020/12/16 03:47:07;;;;;;;2.05;0.50;;;10.70;99.90;;;;;;5087690;28;20108;-81
2020/12/16 03:49:32;;;;;;;1.83;0.20;;;10.70;99.90;;;;;;5070657;28;20032;-81
2020/12/16 03:51:58;;;;;;;0.10;0.10;;;10.80;99.90;;;;;;5087399;28;20391;-81
2020/12/16 03:54:25;;;;;;;0.00;0.00;;;10.80;99.90;;;;;;5087186;28;20024;-81
2020/12/16 03:56:52;;;;;;;1.23;0.20;;;10.90;99.90;;;;;;5087510;28;20073;-81
2020/12/16 03:59:18;;;;;;;0.73;0.20;;;10.90;99.90;;;;;;5087373;28;20552;-81
2020/12/16 04:01:44;;;;;;;3.10;1.02;;;10.90;99.90;;;;;;5087106;28;20032;-81
2020/12/16 04:04:10;;;;;;;1.88;0.20;;;10.90;99.90;;;;;;5087034;28;20024;-81
2020/12/16 04:06:36;;;;;;;1.55;0.35;;;10.90;99.90;;;;;;5086958;28;20043;-81
2020/12/16 04:09:04;;;;;;;2.30;0.10;;;10.90;99.90;;;;;;5087075;28;20081;-82
2020/12/16 04:11:30;;;;;;;0.55;0.20;;;10.80;99.90;;;;;;5088755;28;20044;-81
2020/12/16 04:13:55;;;;;;;2.58;0.40;;;10.90;99.90;;;;;;5087368;28;20469;-82
2020/12/16 04:16:22;;;;;;;0.88;0.30;;;10.90;99.90;;;;;;5086993;28;20479;-81
2020/12/16 04:18:48;;;;;;;2.13;0.60;;;11.00;99.90;;;;;;5086753;28;20176;-81
2020/12/16 04:21:16;;;;;;;5.05;0.80;;;11.00;99.90;;;;;;5086841;28;20483;-81
2020/12/16 04:23:42;;;;;;;12.95;1.67;;;11.00;99.90;;;;;;5086745;28;20032;-82
2020/12/16 04:26:07;;;;;;;9.25;1.75;;;10.90;99.90;;;;;;5086842;28;20031;-82
2020/12/16 04:28:34;;;;;;;10.55;1.92;;;10.80;99.90;;;;;;5086577;28;20033;-82
2020/12/16 04:31:01;;;;;;;16.42;3.03;;;10.70;99.90;;;;;;5087908;28;20172;-81
2020/12/16 04:33:26;;;;;;;16.33;3.15;;;10.60;99.90;;;;;;5086964;28;20486;-81
2020/12/16 04:35:52;;;;;;;21.90;3.95;;;10.50;99.90;;;;;;5086703;28;20167;-81
2020/12/16 04:38:18;;;;;;;20.88;3.60;;;10.30;99.90;;;;;;5070011;28;20032;-81
2020/12/16 04:40:44;;;;;;;19.42;3.70;;;10.30;99.90;;;;;;5086863;28;20077;-81
2020/12/16 04:43:15;;;;;;;15.85;2.70;;;10.20;99.90;;;;;;5086662;28;20016;-82
2020/12/16 04:45:41;;;;;;;25.80;4.07;;;10.10;99.90;;;;;;5087810;28;20020;-81
2020/12/16 04:48:09;;;;;;;22.02;4.75;;;10.10;99.90;;;;;;5088021;28;20035;-81
2020/12/16 04:50:36;;;;;;;19.45;3.42;;;10.10;99.90;;;;;;5086812;28;20501;-81
2020/12/16 04:53:08;;;;;;;26.75;4.40;;;10.00;99.90;;;;;;5086831;28;20028;-81
2020/12/16 04:55:35;;;;;;;20.17;3.35;;;10.00;99.90;;;;;;5069805;28;20028;-82
2020/12/16 04:58:02;;;;;;;16.20;2.67;;;10.00;99.90;;;;;;5086599;28;20024;-81
2020/12/16 05:00:30;;;;;;;16.85;2.90;;;10.00;99.90;;;;;;5087044;28;20024;-81
2020/12/16 05:03:00;;;;;;;22.30;4.63;;;9.90;99.90;;;;;;5070289;28;20443;-81
2020/12/16 05:05:26;;;;;;;16.88;3.13;;;9.90;99.90;;;;;;5086838;28;20028;-81
2020/12/16 05:07:53;;;;;;;23.75;3.20;;;9.80;99.90;;;;;;5086950;28;20111;-81
2020/12/16 05:10:39;;;;;;;14.32;2.92;;;9.80;99.90;;;;;;5086622;28;20595;-82
2020/12/16 05:13:13;;;;;;;19.35;3.67;;;9.80;99.90;;;;;;5088038;28;20027;-82
2020/12/16 05:15:41;;;;;;;17.70;3.72;;;9.80;99.90;;;;;;5086829;28;20033;-81
2020/12/16 05:18:17;;;;;;;15.02;2.13;;;9.90;99.90;;;;;;5086676;28;20079;-81
2020/12/16 05:20:50;;;;;;;13.88;2.63;;;9.80;99.90;;;;;;5086874;28;20085;-80
2020/12/16 05:23:17;;;;;;;18.67;2.60;;;9.80;99.90;;;;;;5086477;28;20118;-80
2020/12/16 05:26:09;;;;;;;17.92;3.60;;;9.80;99.90;;;;;;5087825;28;20027;-80
2020/12/16 05:28:37;;;;;;;16.25;2.75;;;9.80;99.90;;;;;;5082002;28;20491;-80
2020/12/16 05:31:06;;;;;;;11.93;2.05;;;9.90;99.90;;;;;;5086360;28;20028;-80
2020/12/16 05:33:40;;;;;;;11.07;1.73;;;9.90;99.90;;;;;;5086514;28;20025;-80
2020/12/16 05:36:08;;;;;;;17.05;3.65;;;10.00;99.90;;;;;;5086001;28;20414;-80
2020/12/16 05:38:35;;;;;;;11.93;2.30;;;10.00;99.90;;;;;;5086771;28;20461;-80
2020/12/16 05:41:07;;;;;;;14.13;2.60;;;10.10;99.90;;;;;;5087988;28;20068;-80
2020/12/16 05:43:32;;;;;;;13.60;2.55;;;10.20;99.90;;;;;;5073259;28;20501;-80
2020/12/16 05:45:58;;;;;;;20.73;4.00;;;10.20;99.90;;;;;;5090065;28;20186;-80
2020/12/16 05:48:28;;;;;;;10.05;2.38;;;10.10;99.90;;;;;;5073184;28;20036;-80
2020/12/16 05:50:56;;;;;;;17.20;2.38;;;10.00;99.90;;;;;;5089649;28;20039;-80
2020/12/16 05:53:25;;;;;;;10.52;2.80;;;10.00;99.90;;;;;;5091526;28;20020;-82
2020/12/16 05:55:52;;;;;;;14.32;2.05;;;10.00;99.90;;;;;;5089852;28;20024;-81
2020/12/16 05:58:20;;;;;;;10.77;2.05;;;10.00;99.90;;;;;;5089575;28;20025;-80
2020/12/16 06:00:49;;;;;;;12.52;1.85;;;9.90;99.90;;;;;;5089671;28;20170;-80
2020/12/16 06:03:21;;;;;;;10.13;1.80;;;9.90;99.90;;;;;;5089776;28;20012;-80
2020/12/16 06:05:54;;;;;;;11.13;1.67;;;9.90;99.90;;;;;;5090909;28;20113;-80
2020/12/16 06:08:26;;;;;;;10.90;2.08;;;9.90;99.90;;;;;;5089551;28;20016;-79
2020/12/16 06:10:52;;;;;;;15.02;3.22;;;9.90;99.90;;;;;;5089538;28;20543;-80
2020/12/16 06:13:19;;;;;;;17.60;2.40;;;10.00;99.90;;;;;;5089609;28;20070;-80
2020/12/16 06:16:13;;;;;;;10.02;1.75;;;10.00;99.90;;;;;;5090876;28;20032;-80
2020/12/16 06:18:47;;;;;;;13.95;2.67;;;10.00;99.90;;;;;;5086337;28;20197;-80
2020/12/16 06:21:14;;;;;;;11.30;1.95;;;10.00;99.90;;;;;;5089364;28;20067;-80
2020/12/16 06:23:44;;;;;;;13.35;1.83;;;10.00;99.90;;;;;;5090389;28;20028;-80
2020/12/16 06:26:13;;;;;;;6.78;1.15;;;10.00;99.90;;;;;;5089049;28;20505;-80
2020/12/16 06:28:39;;;;;;;9.00;1.73;;;10.10;99.90;;;;;;5088501;28;20036;-80
2020/12/16 06:31:40;;;;;;;12.75;2.00;;;10.10;99.90;;;;;;5088956;28;20027;-80
2020/12/16 06:34:10;;;;;;;8.45;1.33;;;10.10;99.90;;;;;;5089036;28;20032;-80
2020/12/16 06:36:41;;;;;;;4.97;0.90;;;10.10;99.90;;;;;;5089282;28;20020;-80
2020/12/16 06:39:18;;;;;;;7.55;1.38;;;10.10;99.90;;;;;;5089414;28;20039;-80
2020/12/16 06:42:00;;;;;;;10.48;1.40;;;10.10;99.90;;;;;;5089100;28;20039;-80
2020/12/16 06:44:26;;;;;;;6.82;1.60;;;10.10;99.90;;;;;;5088767;28;20028;-80
2020/12/16 06:46:54;;;;;;;9.43;1.70;;;10.20;99.90;;;;;;5088655;28;20039;-80
2020/12/16 06:49:22;;;;;;;6.95;1.33;;;10.30;99.90;;;;;;5089798;28;20512;-80
2020/12/16 06:51:53;;;;;;;8.55;1.20;;;10.30;99.90;;;;;;5088145;28;20060;-80
2020/12/16 06:54:20;;;;;;;6.05;1.25;;;10.30;99.90;;;;;;5087904;28;20024;-80
2020/12/16 06:57:24;;;;;;;9.02;1.48;;;10.20;99.90;;;;;;5087777;28;20023;-80
2020/12/16 07:00:00;;;;;;;11.50;1.60;;;10.10;99.90;;;;;;4990645;28;20424;-80
2020/12/16 07:02:28;;;;;;;13.35;1.67;;;10.10;99.90;;;;;;5078538;28;20047;-78
2020/12/16 07:04:55;;;;;;;10.73;1.50;;;10.10;99.90;;;;;;5089449;28;20031;-80
2020/12/16 07:07:43;;;;;;;6.85;1.38;;;10.00;99.90;;;;;;5071595;28;20035;-80
2020/12/16 07:10:33;;;;;;;8.23;1.30;;;10.00;99.90;;;;;;5089628;28;20394;-80
2020/12/16 07:13:24;;;;;;;7.10;1.08;;;10.00;99.90;;;;;;5088076;28;20081;-80
2020/12/16 07:16:00;;;;;;;6.85;1.17;;;10.00;99.90;;;;;;5087738;28;20024;-80
2020/12/16 07:18:30;;;;;;;8.23;1.33;;;10.00;99.90;;;;;;5088943;28;20032;-79
2020/12/16 07:21:15;;;;;;;9.52;1.30;;;10.10;99.90;;;;;;5088065;28;20024;-80
2020/12/16 07:24:02;;;;;;;11.75;1.83;;;10.20;99.90;;;;;;5089604;28;20024;-80
2020/12/16 07:26:35;;;;;;;5.63;1.65;;;10.20;99.90;;;;;;5088756;28;20099;-80
2020/12/16 07:29:18;;;;;;;11.52;1.17;;;10.30;99.90;;;;;;5088844;28;20379;-80
2020/12/16 07:32:20;;;;;;;4.85;1.13;;;10.30;99.90;;;;;;5089124;28;20459;-80
2020/12/16 07:34:49;;;;;;;5.93;1.20;;;10.40;99.90;;;;;;4990353;28;20044;-81
2020/12/16 07:37:18;;;;;;;10.25;1.58;;;10.50;99.90;;;;;;5089857;28;20109;-81
2020/12/16 07:39:47;;;;;;;7.00;1.48;;;10.60;99.90;;;;;;5087363;28;20029;-81
2020/12/16 07:42:21;;;;;;;7.10;1.02;;;10.50;99.90;;;;;;5087640;28;20073;-81
2020/12/16 07:44:47;;;;;;;6.63;1.30;;;10.40;99.90;;;;;;5087691;28;20115;-80
2020/12/16 07:47:15;;;;;;;5.53;1.33;;;10.40;99.90;;;;;;5088545;28;20107;-80
2020/12/16 07:49:41;;;;;;;6.00;0.93;;;10.40;99.90;;;;;;5087249;28;20032;-80
2020/12/16 07:52:07;;;;;;;10.43;1.73;;;10.50;99.90;;;;;;5087058;28;20503;-79
2020/12/16 07:54:33;;;;;;;8.38;1.27;;;10.50;99.90;;;;;;5086973;28;20024;-80
2020/12/16 07:57:00;;;;;;;8.00;1.27;;;10.50;99.90;;;;;;5088451;28;20089;-81
2020/12/16 07:59:31;;;;;;;6.60;1.90;;;10.50;99.90;;;;;;5086977;28;20123;-81
2020/12/16 08:02:12;;;;;;;10.00;1.75;;;10.50;99.90;;;;;;5087019;28;20488;-80
2020/12/16 08:04:58;;;;;;;8.80;1.65;;;10.50;99.90;;;;;;5087837;28;20020;-80
2020/12/16 08:07:25;;;;;;;6.95;1.70;;;10.50;99.90;;;;;;5088224;28;20024;-80
2020/12/16 08:09:59;;;;;;;3.65;1.08;;;10.60;99.90;;;;;;5086799;28;20047;-81
2020/12/16 08:12:28;;;;;;;6.25;1.35;;;10.60;99.90;;;;;;5086692;28;20054;-81
2020/12/16 08:15:08;;;;;;;9.93;1.27;;;10.70;99.90;;;;;;5086639;28;20020;-79
2020/12/16 08:17:38;;;;;;;8.25;1.20;;;10.80;99.90;;;;;;5086416;28;20040;-80
2020/12/16 08:20:36;;;;;;;5.55;1.20;;;10.80;99.90;;;;;;5086674;28;20024;-79
2020/12/16 08:23:01;;;;;;;15.90;1.92;;;10.80;99.90;;;;;;5081779;28;20283;-81
2020/12/16 08:25:27;;;;;;;10.27;1.77;;;10.80;99.90;;;;;;5086106;28;20073;-80
2020/12/16 08:27:56;;;;;;;10.75;2.55;;;10.90;99.90;;;;;;5087565;28;20485;-80
2020/12/16 08:30:24;;;;;;;9.63;1.83;;;10.90;99.90;;;;;;5087330;28;20161;-79
2020/12/16 08:33:09;;;;;;;6.68;1.20;;;10.90;99.90;;;;;;5085817;28;20047;-79
2020/12/16 08:35:45;;;;;;;13.23;1.90;;;10.90;99.90;;;;;;5087345;28;20028;-79
2020/12/16 08:38:17;;;;;;;13.57;1.90;;;10.80;99.90;;;;;;5085833;28;20028;-81
2020/12/16 08:40:47;;;;;;;6.30;1.30;;;10.80;99.90;;;;;;5085798;28;20099;-81
2020/12/16 08:43:31;;;;;;;5.80;1.13;;;10.70;99.90;;;;;;5085935;28;20020;-79
2020/12/16 08:46:04;;;;;;;13.45;2.22;;;10.70;99.90;;;;;;5086225;28;20104;-80
2020/12/16 08:49:00;;;;;;;8.13;1.50;;;10.80;99.90;;;;;;5087354;28;20058;-80
2020/12/16 08:51:40;;;;;;;9.45;1.25;;;10.70;99.90;;;;;;5065328;28;20036;-81
2020/12/16 08:54:09;;;;;;;6.60;1.45;;;10.60;99.80;;;;;;5087238;28;20028;-81
2020/12/16 08:56:42;;;;;;;12.93;1.45;;;10.60;99.70;;;;;;5087356;28;20044;-81
2020/12/16 08:59:11;;;;;;;7.25;1.15;;;10.60;99.80;;;;;;5085650;28;20049;-79
2020/12/16 09:01:39;;;;;;;11.80;2.28;;;10.60;99.80;;;;;;5085190;28;20025;-80
2020/12/16 09:04:07;;;;;;;7.47;1.08;;;10.70;99.70;;;;;;5087327;28;20055;-78
2020/12/16 09:06:33;;;;;;;7.68;1.70;;;10.70;99.70;;;;;;5086519;28;20047;-80
2020/12/16 09:08:59;;;;;;;6.50;1.10;;;10.80;99.60;;;;;;5084977;28;20066;-80
2020/12/16 09:11:24;;;;;;;3.97;0.80;;;10.80;99.50;;;;;;5085579;28;20032;-80
2020/12/16 09:13:56;;;;;;;6.32;1.05;;;10.80;99.40;;;;;;5085775;28;20034;-81
2020/12/16 09:16:23;;;;;;;4.00;0.85;;;10.80;99.30;;;;;;5088570;28;20024;-81
2020/12/16 09:18:51;;;;;;;4.20;0.90;;;10.80;99.20;;;;;;5089667;28;20055;-80
2020/12/16 09:21:28;;;;;;;7.28;2.00;;;10.80;99.10;;;;;;5089491;28;20024;-80
2020/12/16 09:23:54;;;;;;;6.13;0.85;;;10.80;99.10;;;;;;5090285;28;20020;-81
2020/12/16 09:26:31;;;;;;;10.73;1.80;;;10.80;99.10;;;;;;5089335;28;20392;-79
2020/12/16 09:28:57;;;;;;;9.02;2.17;;;10.90;99.10;;;;;;5090215;28;20032;-80
2020/12/16 09:31:23;;;;;;;3.65;1.00;;;10.90;99.10;;;;;;5072539;28;20024;-79
2020/12/16 09:33:59;;;;;;;8.93;1.40;;;10.90;99.00;;;;;;5091738;28;20028;-76
2020/12/16 09:36:27;;;;;;;4.88;1.67;;;10.90;99.00;;;;;;5089745;28;20077;-80
2020/12/16 09:38:57;;;;;;;6.00;1.10;;;10.90;99.00;;;;;;5072974;28;20039;-80
2020/12/16 09:41:23;;;;;;;9.07;1.60;;;10.80;99.00;;;;;;5089444;28;20109;-80
2020/12/16 09:43:49;;;;;;;4.60;1.27;;;10.70;99.10;;;;;;5090513;28;20074;-80
2020/12/16 09:46:23;;;;;;;7.22;1.17;;;10.70;99.10;;;;;;5091188;28;20390;-80
2020/12/16 09:48:58;;;;;;;10.07;1.00;;;10.60;99.10;;;;;;5090718;28;20032;-80
2020/12/16 09:51:23;;;;;;;8.57;1.20;;;10.60;99.10;;;;;;5091459;28;20043;-81
2020/12/16 09:53:49;;;;;;;6.53;1.10;;;10.60;99.10;;;;;;5089415;28;20024;-80
2020/12/16 09:56:41;;;;;;;5.38;1.00;;;10.60;99.20;;;;;;5073174;28;20024;-80
2020/12/16 09:59:18;;;;;;;7.13;1.40;;;10.60;99.30;;;;;;5083140;28;20047;-81
2020/12/16 10:01:43;;;;;;;8.07;1.17;;;10.60;99.40;;;;;;5089565;28;20030;-81
2020/12/16 10:04:09;;;;;;;6.32;0.98;;;10.60;99.20;;;;;;5089077;28;20102;-80
2020/12/16 10:06:35;;;;;;;7.88;1.83;;;10.70;99.20;;;;;;5072241;28;20032;-81
2020/12/16 10:09:00;;;;;;;8.48;1.02;;;10.70;99.20;;;;;;5089083;28;20250;-81
2020/12/16 10:11:26;;;;;;;9.50;1.27;;;10.70;99.10;;;;;;5073315;28;20020;-81
2020/12/16 10:13:52;;;;;;;9.05;1.73;;;10.70;99.00;;;;;;5074297;28;20482;-81
2020/12/16 10:16:17;;;;;;;5.35;1.52;;;10.60;99.00;;;;;;5076343;28;20384;-83
2020/12/16 10:18:43;;;;;;;11.05;1.33;;;10.60;99.00;;;;;;5092109;28;20048;-84
2020/12/16 10:21:09;;;;;;;7.53;0.88;;;10.60;99.00;;;;;;5075101;28;20043;-82
2020/12/16 10:23:35;;;;;;;7.47;1.05;;;10.60;99.10;;;;;;5091391;28;20115;-82
2020/12/16 10:26:00;;;;;;;12.43;1.42;;;10.60;99.10;;;;;;5074235;28;20390;-82
2020/12/16 10:28:26;;;;;;;7.70;1.63;;;10.50;99.10;;;;;;5073662;28;20077;-83
2020/12/16 10:30:52;;;;;;;8.30;1.98;;;10.50;99.10;;;;;;5074738;28;20489;-81
2020/12/16 10:33:17;;;;;;;5.28;2.40;;;10.50;99.00;;;;;;5075180;28;20028;-82
2020/12/16 10:35:44;;;;;;;13.85;1.90;;;10.60;99.10;;;;;;5091464;28;20445;-83
2020/12/16 10:38:10;;;;;;;8.02;1.30;;;10.50;99.10;;;;;;5074386;28;20058;-83
2020/12/16 10:40:36;;;;;;;5.72;1.38;;;10.60;99.10;;;;;;5091521;28;20050;-81
2020/12/16 10:43:03;;;;;;;7.95;1.60;;;10.60;99.00;;;;;;5091555;28;20059;-82
2020/12/16 10:45:32;;;;;;;6.10;2.22;;;10.70;99.00;;;;;;5091737;28;20047;-82
2020/12/16 10:47:59;;;;;;;13.75;2.40;;;10.70;98.90;;;;;;5090223;28;20103;-83
2020/12/16 10:50:30;;;;;;;6.07;1.30;;;10.70;98.90;;;;;;5090931;28;20081;-83
2020/12/16 10:52:56;;;;;;;5.80;1.25;;;10.80;98.90;;;;;;5092706;28;20016;-82
2020/12/16 10:55:21;;;;;;;3.60;0.90;;;10.80;98.90;;;;;;5074598;28;20028;-83
2020/12/16 10:57:47;;;;;;;7.22;1.38;;;11.00;99.40;;;;;;5091238;28;20069;-81
2020/12/16 11:00:13;;;;;;;3.35;0.98;;;11.40;99.20;;;;;;5091631;28;20035;-84
2020/12/16 11:02:38;;;;;;;13.70;2.05;;;11.60;98.70;;;;;;5092334;28;20028;-82
2020/12/16 11:05:04;;;;;;;5.68;1.48;;;11.70;98.40;;;;;;5075094;28;20028;-82
2020/12/16 11:07:30;;;;;;;4.95;1.10;;;11.90;98.00;;;;;;5092915;28;20378;-81
2020/12/16 11:09:56;;;;;;;8.98;1.38;;;12.10;97.80;;;;;;5074319;28;20035;-81
2020/12/16 11:12:21;;;;;;;4.80;0.93;;;12.30;97.90;;;;;;5090518;28;20028;-81
2020/12/16 11:14:47;;;;;;;6.90;0.90;;;12.80;97.90;;;;;;5089495;28;20028;-81
2020/12/16 11:17:13;;;;;;;6.63;1.48;;;13.50;97.90;;;;;;5089623;28;20384;-82
2020/12/16 11:19:39;;;;;;;10.90;2.15;;;14.30;97.50;;;;;;5072230;28;20094;-81
2020/12/16 11:22:07;;;;;;;4.28;1.23;;;14.80;95.50;;;;;;5089123;28;20064;-81
2020/12/16 11:24:33;;;;;;;5.95;1.35;;;15.20;94.90;;;;;;5089850;28;20030;-84
2020/12/16 11:26:59;;;;;;;3.42;0.95;;;15.40;94.20;;;;;;5090734;28;20115;-85
2020/12/16 11:29:25;;;;;;;4.78;0.98;;;15.50;92.80;;;;;;5091650;28;20039;-84
2020/12/16 11:31:53;;;;;;;4.00;0.75;;;15.40;92.10;;;;;;5092316;28;20020;-84
2020/12/16 11:34:24;;;;;;;2.58;1.10;;;15.20;92.50;;;;;;5089484;28;20020;-81
2020/12/16 11:36:51;;;;;;;3.45;1.13;;;15.10;92.60;;;;;;5089677;28;20020;-84
2020/12/16 11:39:18;;;;;;;6.13;1.60;;;15.10;92.70;;;;;;5091084;28;20099;-84
2020/12/16 11:41:46;;;;;;;2.03;0.82;;;14.90;92.00;;;;;;5090948;28;20020;-83
2020/12/16 11:44:16;;;;;;;1.25;0.50;;;14.60;92.00;;;;;;5092733;28;20043;-82
2020/12/16 11:46:43;;;;;;;1.83;0.70;;;14.30;91.90;;;;;;5092633;28;20024;-84
2020/12/16 11:49:09;;;;;;;2.20;1.10;;;14.00;92.30;;;;;;5091632;28;20059;-83
2020/12/16 11:51:36;;;;;;;2.97;0.98;;;13.80;92.60;;;;;;5092866;28;20034;-83
2020/12/16 11:54:02;;;;;;;3.60;1.08;;;13.70;92.80;;;;;;5092571;28;20151;-82
2020/12/16 11:56:31;;;;;;;5.38;1.73;;;13.70;93.20;;;;;;5090918;28;20016;-82
2020/12/16 11:58:56;;;;;;;12.07;3.13;;;13.60;93.20;;;;;;5090197;28;20115;-81
2020/12/16 12:01:22;;;;;;;12.48;3.58;;;13.50;93.20;;;;;;5073031;28;20626;-83
2020/12/16 12:03:48;;;;;;;8.75;2.55;;;13.40;93.40;;;;;;5089971;28;20028;-81
2020/12/16 12:06:15;;;;;;;4.50;1.27;;;13.20;93.60;;;;;;5089872;28;20032;-84
2020/12/16 12:08:41;;;;;;;3.78;1.08;;;13.00;93.80;;;;;;5089119;28;20028;-82
2020/12/16 12:11:11;;;;;;;5.57;1.20;;;12.90;93.90;;;;;;5090152;28;20403;-81
2020/12/16 12:13:37;;;;;;;4.25;0.70;;;12.60;94.10;;;;;;5090914;28;20020;-83
2020/12/16 12:16:03;;;;;;;3.72;0.60;;;12.30;94.40;;;;;;5088640;28;20032;-85
2020/12/16 12:18:28;;;;;;;3.28;0.60;;;12.20;94.90;;;;;;5072744;28;20159;-85
2020/12/16 12:20:54;;;;;;;1.15;0.55;;;12.10;95.20;;;;;;5073063;28;20028;-84
2020/12/16 12:23:20;;;;;;;4.60;1.10;;;12.10;95.40;;;;;;5090657;28;20070;-85
2020/12/16 12:25:46;;;;;;;4.13;0.85;;;12.00;95.50;;;;;;5090229;28;20658;-85
2020/12/16 12:28:11;;;;;;;4.28;0.80;;;11.90;95.70;;;;;;5089235;28;20493;-85
2020/12/16 12:30:40;;;;;;;4.97;1.63;;;11.80;95.90;;;;;;5089752;28;20028;-84
2020/12/16 12:33:07;;;;;;;1.45;0.73;;;11.80;96.10;;;;;;5089506;28;20431;-84
2020/12/16 12:35:32;;;;;;;4.00;1.13;;;11.70;96.20;;;;;;5073913;28;20024;-86
2020/12/16 12:37:58;;;;;;;5.20;0.98;;;11.70;96.40;;;;;;5091499;28;20137;-82
2020/12/16 12:40:24;;;;;;;2.05;0.80;;;11.60;96.60;;;;;;5074623;28;20052;-81
2020/12/16 12:42:50;;;;;;;3.00;1.20;;;11.60;96.90;;;;;;5092853;28;20028;-82
2020/12/16 12:45:16;;;;;;;3.42;0.80;;;11.70;97.10;;;;;;5091904;28;20028;-80
2020/12/16 12:47:41;;;;;;;3.85;1.25;;;11.80;97.20;;;;;;5073318;28;20034;-87
2020/12/16 12:50:08;;;;;;;6.32;1.48;;;11.70;97.10;;;;;;5090384;28;20054;-84
2020/12/16 12:52:34;;;;;;;2.38;0.90;;;11.80;97.10;;;;;;5095600;28;20024;-83
2020/12/16 12:54:59;;;;;;;2.35;1.10;;;11.70;97.10;;;;;;5096269;28;20031;-85